Time;durP1;ratioP1;P1;durP2;ratioP2;P2;SDS_P1;SDS_P2;PMS_P1;PMS_P2;Temp;Humidity;BMP_temperature;BMP_pressure;BME280_temperature;BME280_humidity;BME280_pressure;Samples;Min_cycle;Max_cycle;Signal;HPM_P1;HPM_P2
2024/04/20 00:01:16;;;;;;;0.00;0.00;;;7.70;99.90;;;;;;5201910;27;20022;-64
2024/04/20 00:03:42;;;;;;;0.00;0.00;;;7.70;99.90;;;;;;5194866;27;20007;-64
2024/04/20 00:06:08;;;;;;;0.38;0.00;;;7.70;99.90;;;;;;5197027;27;20019;-63
2024/04/20 00:08:34;;;;;;;0.00;0.00;;;7.70;99.90;;;;;;5207288;27;20334;-63
2024/04/20 00:11:06;;;;;;;0.00;0.00;;;7.70;99.90;;;;;;5199095;27;20043;-64
2024/04/20 00:13:32;;;;;;;0.00;0.00;;;7.70;99.90;;;;;;5209389;27;20028;-63
2024/04/20 00:16:02;;;;;;;0.00;0.00;;;7.80;99.90;;;;;;5203118;27;20023;-63
2024/04/20 00:18:28;;;;;;;0.00;0.00;;;7.80;1.00;;;;;;5190840;27;20011;-63
2024/04/20 00:20:53;;;;;;;0.03;0.00;;;7.80;99.90;;;;;;5195973;27;20515;-63
2024/04/20 00:23:20;;;;;;;0.00;0.00;;;7.70;99.90;;;;;;5196327;27;20041;-63
2024/04/20 00:25:46;;;;;;;0.00;0.00;;;7.70;99.90;;;;;;5186928;27;20075;-63
2024/04/20 00:28:12;;;;;;;0.00;0.00;;;7.70;99.90;;;;;;5190847;27;20557;-64
2024/04/20 00:30:39;;;;;;;0.00;0.00;;;7.80;1.00;;;;;;5198372;27;20048;-63
2024/04/20 00:33:06;;;;;;;0.00;0.00;;;7.80;1.00;;;;;;5195759;27;20019;-63
2024/04/20 00:35:39;;;;;;;0.00;0.00;;;7.80;1.00;;;;;;5198586;27;20643;-63
2024/04/20 00:38:05;;;;;;;0.47;0.00;;;7.80;1.00;;;;;;5181979;27;20014;-63
2024/04/20 00:40:31;;;;;;;0.00;0.00;;;7.80;7.70;;;;;;5188048;27;20938;-63
2024/04/20 00:42:58;;;;;;;0.00;0.00;;;7.90;1.00;;;;;;5184920;27;20004;-63
2024/04/20 00:45:27;;;;;;;0.10;0.10;;;7.90;1.00;;;;;;5181301;27;20056;-63
2024/04/20 00:47:53;;;;;;;0.00;0.00;;;7.80;99.90;;;;;;5198513;27;20004;-63
2024/04/20 00:50:21;;;;;;;0.00;0.00;;;7.80;1.00;;;;;;5191757;27;20011;-63
2024/04/20 00:52:47;;;;;;;0.00;0.00;;;7.90;1.00;;;;;;5199178;27;20020;-62
2024/04/20 00:55:13;;;;;;;0.00;0.00;;;7.80;1.00;;;;;;5188145;27;20003;-63
2024/04/20 00:57:39;;;;;;;0.00;0.00;;;7.90;1.00;;;;;;5197370;27;20346;-64
2024/04/20 01:00:06;;;;;;;0.10;0.00;;;7.80;1.00;;;;;;5195076;27;20083;-63
2024/04/20 01:02:32;;;;;;;0.00;0.00;;;7.90;9.80;;;;;;5195169;27;20489;-63
2024/04/20 01:04:59;;;;;;;0.03;0.03;;;7.90;16.80;;;;;;5197789;27;20272;-63
2024/04/20 01:07:24;;;;;;;0.00;0.00;;;7.90;72.10;;;;;;5175658;27;20011;-63
2024/04/20 01:09:51;;;;;;;0.00;0.00;;;7.90;1.00;;;;;;5197861;27;20075;-63
2024/04/20 01:12:18;;;;;;;0.00;0.00;;;7.80;1.00;;;;;;5179772;27;20024;-63
2024/04/20 01:14:44;;;;;;;0.00;0.00;;;7.80;1.00;;;;;;5180869;27;20015;-63
2024/04/20 01:17:09;;;;;;;0.00;0.00;;;7.80;1.00;;;;;;5184952;27;20012;-63
2024/04/20 01:19:36;;;;;;;0.00;0.00;;;7.80;1.00;;;;;;5197608;27;20011;-63
2024/04/20 01:22:04;;;;;;;0.00;0.00;;;7.80;1.00;;;;;;5197903;27;20512;-63
2024/04/20 01:24:32;;;;;;;0.00;0.00;;;7.80;1.00;;;;;;5189663;27;20018;-63
2024/04/20 01:26:58;;;;;;;0.00;0.00;;;7.90;33.60;;;;;;5198485;27;20027;-63
2024/04/20 01:29:23;;;;;;;0.00;0.00;;;7.90;99.90;;;;;;5195742;27;20004;-63
2024/04/20 01:31:50;;;;;;;0.00;0.00;;;7.90;1.00;;;;;;5190406;27;20026;-63
2024/04/20 01:34:16;;;;;;;0.00;0.00;;;7.90;99.90;;;;;;5186383;27;20044;-63
2024/04/20 01:36:41;;;;;;;0.00;0.00;;;7.90;99.90;;;;;;5198209;27;20465;-63
2024/04/20 01:39:07;;;;;;;0.00;0.00;;;7.90;99.90;;;;;;5193613;27;20004;-63
2024/04/20 01:41:34;;;;;;;0.00;0.00;;;7.90;99.90;;;;;;5197022;27;20008;-63
2024/04/20 01:44:01;;;;;;;0.00;0.00;;;7.90;99.90;;;;;;5196975;27;20413;-64
2024/04/20 01:46:27;;;;;;;0.00;0.00;;;7.80;99.90;;;;;;5181626;27;20012;-63
2024/04/20 01:48:53;;;;;;;0.00;0.00;;;7.80;85.60;;;;;;5183470;27;20008;-63
2024/04/20 01:51:19;;;;;;;0.00;0.00;;;7.70;81.20;;;;;;5186439;27;20556;-63
2024/04/20 01:53:44;;;;;;;0.00;0.00;;;7.70;1.00;;;;;;5177708;27;20015;-63
2024/04/20 01:56:12;;;;;;;0.00;0.00;;;7.60;32.80;;;;;;5177255;27;20411;-63
2024/04/20 01:58:38;;;;;;;0.00;0.00;;;7.60;1.00;;;;;;5183353;27;20003;-63
2024/04/20 02:01:04;;;;;;;0.00;0.00;;;7.50;1.00;;;;;;5185317;27;20023;-64
2024/04/20 02:03:30;;;;;;;0.00;0.00;;;7.50;1.00;;;;;;5185959;27;20012;-63
2024/04/20 02:05:55;;;;;;;0.00;0.00;;;7.50;1.00;;;;;;5198033;27;20019;-63
2024/04/20 02:08:21;;;;;;;0.00;0.00;;;7.50;1.00;;;;;;5175896;27;20026;-63
2024/04/20 02:10:48;;;;;;;0.00;0.00;;;7.40;99.90;;;;;;5182286;27;20019;-63
2024/04/20 02:13:14;;;;;;;0.28;0.00;;;7.40;1.00;;;;;;5176591;27;20080;-63
2024/04/20 02:15:55;;;;;;;0.00;0.00;;;7.40;1.00;;;;;;5193515;27;20011;-63
2024/04/20 02:18:21;;;;;;;0.00;0.00;;;7.30;1.00;;;;;;5196600;27;20020;-64
2024/04/20 02:20:46;;;;;;;0.00;0.00;;;7.30;1.00;;;;;;5194559;27;20435;-63
2024/04/20 02:23:15;;;;;;;0.00;0.00;;;7.30;99.90;;;;;;5175443;27;20012;-63
2024/04/20 02:25:40;;;;;;;0.00;0.00;;;7.30;1.00;;;;;;5177510;27;20025;-63
2024/04/20 02:28:06;;;;;;;0.00;0.00;;;7.30;1.00;;;;;;5174278;27;20022;-63
2024/04/20 02:30:32;;;;;;;0.00;0.00;;;7.30;1.00;;;;;;5195251;27;20003;-64
2024/04/20 02:32:58;;;;;;;0.00;0.00;;;7.20;1.00;;;;;;5192120;27;20044;-63
2024/04/20 02:35:25;;;;;;;0.00;0.00;;;7.20;1.00;;;;;;5185792;27;20004;-63
2024/04/20 02:37:51;;;;;;;0.00;0.00;;;7.20;1.00;;;;;;5192755;27;20052;-64
2024/04/20 02:40:16;;;;;;;0.00;0.00;;;7.10;1.00;;;;;;5195726;27;20000;-63
2024/04/20 02:42:43;;;;;;;0.00;0.00;;;7.00;1.00;;;;;;5196402;27;20498;-63
2024/04/20 02:45:15;;;;;;;0.00;0.00;;;7.00;1.00;;;;;;5194638;27;20055;-63
2024/04/20 02:47:41;;;;;;;0.00;0.00;;;6.90;1.00;;;;;;5186375;27;20013;-63
2024/04/20 02:50:07;;;;;;;0.00;0.00;;;6.90;1.00;;;;;;5193895;27;20019;-63
2024/04/20 02:52:33;;;;;;;0.00;0.00;;;6.90;1.00;;;;;;5194225;27;20414;-63
2024/04/20 02:54:59;;;;;;;0.00;0.00;;;6.90;1.00;;;;;;5193268;27;20004;-63
2024/04/20 02:57:26;;;;;;;0.00;0.00;;;6.90;1.00;;;;;;5181720;27;20012;-64
2024/04/20 02:59:51;;;;;;;0.00;0.00;;;6.90;1.00;;;;;;5195812;27;20014;-63
2024/04/20 03:02:37;;;;;;;0.00;0.00;;;6.90;1.00;;;;;;5198688;27;20090;-63
2024/04/20 03:05:04;;;;;;;0.00;0.00;;;7.00;1.00;;;;;;5192487;27;20471;-63
2024/04/20 03:07:51;;;;;;;0.00;0.00;;;7.00;1.00;;;;;;5208599;27;20023;-63
2024/04/20 03:10:17;;;;;;;0.75;0.00;;;7.10;1.00;;;;;;5197340;27;20022;-63
2024/04/20 03:12:52;;;;;;;0.00;0.00;;;7.10;25.40;;;;;;5186328;27;20467;-63
2024/04/20 03:15:17;;;;;;;0.00;0.00;;;7.10;46.20;;;;;;5193053;27;20004;-63
2024/04/20 03:17:45;;;;;;;0.00;0.00;;;7.20;1.00;;;;;;5190943;27;20008;-62
2024/04/20 03:20:11;;;;;;;0.00;0.00;;;7.20;1.00;;;;;;5195626;27;20004;-63
2024/04/20 03:22:36;;;;;;;0.00;0.00;;;7.30;1.00;;;;;;5204625;27;19999;-63
2024/04/20 03:25:02;;;;;;;0.00;0.00;;;7.30;1.00;;;;;;5197892;27;20490;-63
2024/04/20 03:27:28;;;;;;;0.00;0.00;;;7.30;1.00;;;;;;5198210;27;20028;-63
2024/04/20 03:29:54;;;;;;;0.00;0.00;;;7.30;1.00;;;;;;5194854;27;20003;-63
2024/04/20 03:32:20;;;;;;;0.00;0.00;;;7.20;1.00;;;;;;5177271;27;20031;-62
2024/04/20 03:34:48;;;;;;;0.00;0.00;;;7.20;1.00;;;;;;5184294;27;20028;-63
2024/04/20 03:37:19;;;;;;;0.00;0.00;;;7.20;1.00;;;;;;5189595;27;20031;-62
2024/04/20 03:39:45;;;;;;;0.00;0.00;;;7.20;1.00;;;;;;5193640;27;20422;-63
2024/04/20 03:42:11;;;;;;;0.00;0.00;;;7.20;1.00;;;;;;5198889;27;20047;-62
2024/04/20 03:44:38;;;;;;;0.00;0.00;;;7.10;1.00;;;;;;5195025;27;20008;-63
2024/04/20 03:47:05;;;;;;;0.00;0.00;;;7.20;1.00;;;;;;5176230;27;20008;-63
2024/04/20 03:49:31;;;;;;;0.00;0.00;;;7.20;1.00;;;;;;5185833;27;20010;-63
2024/04/20 03:51:56;;;;;;;0.00;0.00;;;7.10;1.00;;;;;;5198291;27;20012;-63
2024/04/20 03:54:23;;;;;;;0.00;0.00;;;7.00;60.90;;;;;;5192093;27;20327;-63
2024/04/20 03:56:49;;;;;;;0.00;0.00;;;6.90;99.90;;;;;;5182125;27;20462;-63
2024/04/20 03:59:36;;;;;;;0.00;0.00;;;6.80;99.90;;;;;;5195698;27;20506;-63
2024/04/20 04:02:26;;;;;;;0.00;0.00;;;6.70;99.90;;;;;;5186050;27;20018;-62
2024/04/20 04:05:13;;;;;;;0.00;0.00;;;6.60;99.90;;;;;;5189535;27;20478;-63
2024/04/20 04:07:59;;;;;;;0.00;0.00;;;6.60;99.90;;;;;;5191493;27;20044;-62
2024/04/20 04:10:45;;;;;;;0.00;0.00;;;6.60;99.90;;;;;;5194214;27;20012;-62
2024/04/20 04:13:31;;;;;;;0.00;0.00;;;6.50;99.90;;;;;;5196166;27;20047;-63
2024/04/20 04:16:17;;;;;;;0.00;0.00;;;6.50;99.90;;;;;;5187991;27;20718;-63
2024/04/20 04:19:04;;;;;;;0.00;0.00;;;6.40;99.90;;;;;;5196685;27;20008;-62
2024/04/20 04:21:50;;;;;;;0.00;0.00;;;6.40;99.90;;;;;;5196694;27;20007;-63
2024/04/20 04:24:36;;;;;;;0.00;0.00;;;6.30;1.00;;;;;;5179593;27;20026;-63
2024/04/20 04:27:21;;;;;;;0.10;0.00;;;6.30;1.00;;;;;;5172424;27;20083;-63
2024/04/20 04:30:08;;;;;;;0.00;0.00;;;6.40;1.00;;;;;;5195310;27;20533;-64
2024/04/20 04:32:54;;;;;;;0.00;0.00;;;6.40;1.00;;;;;;5186566;27;20371;-63
2024/04/20 04:35:40;;;;;;;0.00;0.00;;;6.50;1.00;;;;;;5191520;27;20331;-63
2024/04/20 04:38:27;;;;;;;0.00;0.00;;;6.60;99.90;;;;;;5188381;27;20007;-63
2024/04/20 04:41:13;;;;;;;0.00;0.00;;;6.60;99.90;;;;;;5195488;27;20016;-63
2024/04/20 04:44:01;;;;;;;0.00;0.00;;;6.60;99.90;;;;;;5173976;27;20023;-63
2024/04/20 04:46:47;;;;;;;0.00;0.00;;;6.60;99.90;;;;;;5194371;27;20022;-63
2024/04/20 04:49:35;;;;;;;0.00;0.00;;;6.70;99.90;;;;;;5196498;27;20083;-63
2024/04/20 04:52:21;;;;;;;0.00;0.00;;;6.70;99.90;;;;;;5196789;27;20003;-63
2024/04/20 04:55:07;;;;;;;0.00;0.00;;;6.70;99.90;;;;;;5196552;27;20413;-63
2024/04/20 04:57:52;;;;;;;0.00;0.00;;;6.70;99.90;;;;;;5184732;27;20318;-63
2024/04/20 05:00:39;;;;;;;0.00;0.00;;;6.70;99.90;;;;;;5194496;27;20087;-63
2024/04/20 05:03:26;;;;;;;0.00;0.00;;;6.80;99.90;;;;;;5190152;27;20558;-63
2024/04/20 05:06:13;;;;;;;0.00;0.00;;;6.80;99.90;;;;;;5188938;27;20011;-63
2024/04/20 05:09:01;;;;;;;0.00;0.00;;;6.90;99.90;;;;;;5171710;27;20026;-63
2024/04/20 05:11:48;;;;;;;0.00;0.00;;;7.00;99.90;;;;;;5180663;27;20415;-63
2024/04/20 05:14:34;;;;;;;0.00;0.00;;;7.00;1.00;;;;;;5181919;27;20095;-63
2024/04/20 05:17:19;;;;;;;0.00;0.00;;;6.90;1.00;;;;;;5195885;27;20586;-63
2024/04/20 05:20:06;;;;;;;0.00;0.00;;;6.80;10.80;;;;;;5187502;27;20691;-63
2024/04/20 05:22:52;;;;;;;0.00;0.00;;;6.60;45.60;;;;;;5171582;27;20007;-63
2024/04/20 05:25:38;;;;;;;0.00;0.00;;;6.50;99.90;;;;;;5166610;27;20081;-63
2024/04/20 05:28:25;;;;;;;0.00;0.00;;;6.40;99.90;;;;;;5191996;27;20047;-63
2024/04/20 05:31:11;;;;;;;0.00;0.00;;;6.30;99.90;;;;;;5195000;27;20008;-63
2024/04/20 05:33:57;;;;;;;0.00;0.00;;;6.20;99.90;;;;;;5187393;27;20017;-63
2024/04/20 05:36:45;;;;;;;0.00;0.00;;;6.20;99.90;;;;;;5187459;27;20008;-63
2024/04/20 05:39:32;;;;;;;0.00;0.00;;;6.20;1.00;;;;;;5185790;27;20370;-64
2024/04/20 05:42:18;;;;;;;0.00;0.00;;;6.20;1.00;;;;;;5195197;27;20121;-64
2024/04/20 05:45:04;;;;;;;0.00;0.00;;;6.30;1.00;;;;;;5186731;27;20008;-63
2024/04/20 05:47:52;;;;;;;0.00;0.00;;;6.30;1.00;;;;;;5169847;27;20338;-64
2024/04/20 05:50:37;;;;;;;0.00;0.00;;;6.30;1.00;;;;;;5190678;27;20046;-63
2024/04/20 05:53:24;;;;;;;0.00;0.00;;;6.40;99.90;;;;;;5177242;27;20022;-63
2024/04/20 05:56:11;;;;;;;0.00;0.00;;;6.50;99.90;;;;;;5217999;27;20034;-64
2024/04/20 05:58:58;;;;;;;0.00;0.00;;;6.50;99.90;;;;;;5183326;27;20004;-64
2024/04/20 06:01:44;;;;;;;0.00;0.00;;;6.50;99.90;;;;;;5193901;27;20000;-63
2024/04/20 06:04:34;;;;;;;0.00;0.00;;;6.50;99.90;;;;;;5162727;27;20010;-64
2024/04/20 06:07:20;;;;;;;0.00;0.00;;;6.40;1.00;;;;;;5193671;27;20026;-64
2024/04/20 06:10:06;;;;;;;0.00;0.00;;;6.30;1.00;;;;;;5192736;27;20008;-64
2024/04/20 06:12:52;;;;;;;0.00;0.00;;;6.20;1.00;;;;;;5195716;27;20012;-64
2024/04/20 06:15:39;;;;;;;0.00;0.00;;;6.20;89.20;;;;;;5163062;27;20003;-63
2024/04/20 06:18:24;;;;;;;0.00;0.00;;;6.20;99.90;;;;;;5177342;27;20062;-63
2024/04/20 06:21:10;;;;;;;0.00;0.00;;;6.30;99.90;;;;;;5195070;27;20443;-63
2024/04/20 06:23:56;;;;;;;0.00;0.00;;;6.40;99.90;;;;;;5187891;27;20139;-63
2024/04/20 06:26:44;;;;;;;0.00;0.00;;;6.50;99.90;;;;;;5172095;27;20857;-63
2024/04/20 06:29:30;;;;;;;0.00;0.00;;;6.60;99.90;;;;;;5181614;27;20623;-64
2024/04/20 06:32:16;;;;;;;0.00;0.00;;;6.70;99.90;;;;;;5157765;27;20005;-64
2024/04/20 06:35:02;;;;;;;0.00;0.00;;;6.80;99.90;;;;;;5192629;27;20007;-64
2024/04/20 06:37:49;;;;;;;0.00;0.00;;;6.80;99.90;;;;;;5188744;27;20435;-64
2024/04/20 06:40:35;;;;;;;0.00;0.00;;;6.70;95.80;;;;;;5198587;27;20311;-63
2024/04/20 06:43:21;;;;;;;0.00;0.00;;;6.50;87.00;;;;;;5191567;27;20004;-63
2024/04/20 06:46:08;;;;;;;0.00;0.00;;;6.50;41.20;;;;;;5203650;27;20015;-63
2024/04/20 06:48:55;;;;;;;0.00;0.00;;;6.40;99.90;;;;;;5177422;27;20056;-64
2024/04/20 06:51:41;;;;;;;0.00;0.00;;;6.50;99.90;;;;;;5195816;27;20006;-63
2024/04/20 06:54:27;;;;;;;0.00;0.00;;;6.60;99.90;;;;;;5197768;27;20338;-64
2024/04/20 06:57:13;;;;;;;0.00;0.00;;;6.60;99.90;;;;;;5199676;27;20011;-63
2024/04/20 07:00:00;;;;;;;0.00;0.00;;;6.70;99.90;;;;;;5203356;27;20062;-63
2024/04/20 07:02:46;;;;;;;0.00;0.00;;;6.90;99.90;;;;;;5205869;27;20082;-64
2024/04/20 07:05:32;;;;;;;0.00;0.00;;;7.00;99.90;;;;;;5206161;27;20015;-63
2024/04/20 07:08:18;;;;;;;0.00;0.00;;;7.10;99.90;;;;;;5198464;27;20371;-63
2024/04/20 07:11:05;;;;;;;0.00;0.00;;;7.20;99.90;;;;;;5195115;27;20022;-64
2024/04/20 07:13:55;;;;;;;0.00;0.00;;;7.40;78.10;;;;;;5193738;27;20008;-64
2024/04/20 07:16:45;;;;;;;0.00;0.00;;;7.40;1.00;;;;;;5209920;27;19999;-64
2024/04/20 07:19:30;;;;;;;0.00;0.00;;;7.50;99.90;;;;;;5183733;27;20025;-63
2024/04/20 07:22:17;;;;;;;0.00;0.00;;;7.80;99.90;;;;;;5203200;27;20008;-64
2024/04/20 07:25:04;;;;;;;0.00;0.00;;;7.90;99.90;;;;;;5198182;27;20439;-64
2024/04/20 07:27:49;;;;;;;0.00;0.00;;;7.80;99.90;;;;;;5201543;27;20523;-64
2024/04/20 07:30:35;;;;;;;0.00;0.00;;;7.90;99.90;;;;;;5194710;27;20015;-64
2024/04/20 07:33:21;;;;;;;0.00;0.00;;;8.20;99.90;;;;;;5192232;27;20478;-64
2024/04/20 07:36:07;;;;;;;0.00;0.00;;;8.60;99.90;;;;;;5190304;27;20008;-64
2024/04/20 07:38:54;;;;;;;0.00;0.00;;;8.80;99.90;;;;;;5230161;27;20061;-64
2024/04/20 07:41:41;;;;;;;0.00;0.00;;;8.50;99.90;;;;;;5178750;27;20019;-64
2024/04/20 07:44:27;;;;;;;0.00;0.00;;;8.20;99.90;;;;;;5205449;27;20023;-64
2024/04/20 07:47:13;;;;;;;0.00;0.00;;;8.10;99.90;;;;;;5210490;27;20011;-64
2024/04/20 07:50:00;;;;;;;0.00;0.00;;;8.20;99.90;;;;;;5204855;27;20003;-64
2024/04/20 07:52:47;;;;;;;0.00;0.00;;;8.40;99.90;;;;;;5168722;27;20903;-64
2024/04/20 07:55:33;;;;;;;0.00;0.00;;;8.50;99.90;;;;;;5185660;27;20407;-64
2024/04/20 07:58:19;;;;;;;0.00;0.00;;;8.80;99.90;;;;;;5201471;27;20019;-64
2024/04/20 08:01:05;;;;;;;0.00;0.00;;;8.90;99.90;;;;;;5200371;27;20005;-64
2024/04/20 08:03:51;;;;;;;0.00;0.00;;;8.80;41.60;;;;;;5215411;27;20003;-64
2024/04/20 08:06:43;;;;;;;0.00;0.00;;;8.70;1.00;;;;;;5182420;27;20020;-64
2024/04/20 08:09:28;;;;;;;0.00;0.00;;;8.60;1.00;;;;;;5179416;27;20515;-64
2024/04/20 08:12:15;;;;;;;0.00;0.00;;;8.50;1.00;;;;;;5195287;27;20015;-64
2024/04/20 08:15:02;;;;;;;0.00;0.00;;;8.60;1.00;;;;;;5183582;27;20342;-64
2024/04/20 08:17:49;;;;;;;0.00;0.00;;;8.70;1.00;;;;;;5196873;27;20375;-64
2024/04/20 08:20:35;;;;;;;0.00;0.00;;;9.20;34.40;;;;;;5196222;27;20008;-64
2024/04/20 08:23:22;;;;;;;0.00;0.00;;;9.90;99.90;;;;;;5171347;27;20013;-65
2024/04/20 08:26:08;;;;;;;0.00;0.00;;;9.80;1.00;;;;;;5178923;27;20026;-64
2024/04/20 08:28:54;;;;;;;0.00;0.00;;;9.50;1.00;;;;;;5180758;27;20023;-64
2024/04/20 08:31:40;;;;;;;0.00;0.00;;;9.30;1.00;;;;;;5136112;27;20008;-64
2024/04/20 08:34:27;;;;;;;0.00;0.00;;;9.40;9.20;;;;;;5193978;27;20543;-64
2024/04/20 08:37:13;;;;;;;0.00;0.00;;;9.40;1.00;;;;;;5195490;27;20039;-63
2024/04/20 08:39:59;;;;;;;0.00;0.00;;;9.50;99.90;;;;;;5196706;27;20012;-64
2024/04/20 08:42:46;;;;;;;0.00;0.00;;;10.00;1.00;;;;;;5191134;27;20019;-64
2024/04/20 08:45:34;;;;;;;0.40;0.00;;;10.20;99.90;;;;;;5160157;27;20008;-65
2024/04/20 08:48:22;;;;;;;0.00;0.00;;;10.10;99.90;;;;;;5192614;27;20008;-64
2024/04/20 08:51:11;;;;;;;0.00;0.00;;;10.00;99.90;;;;;;5196257;27;20064;-64
2024/04/20 08:53:59;;;;;;;0.00;0.00;;;9.60;99.90;;;;;;5192492;27;20016;-64
2024/04/20 08:56:46;;;;;;;0.00;0.00;;;9.50;99.90;;;;;;5194329;27;20640;-64
2024/04/20 08:59:13;;;;;;;0.32;0.00;;;9.70;99.90;;;;;;5193373;27;20015;-64
2024/04/20 09:01:40;;;;;;;0.00;0.00;;;9.80;99.90;;;;;;5198141;27;20003;-64
2024/04/20 09:04:07;;;;;;;0.00;0.00;;;9.90;99.90;;;;;;5192665;27;20016;-64
2024/04/20 09:07:00;;;;;;;0.00;0.00;;;9.80;99.90;;;;;;5186568;27;20015;-64
2024/04/20 09:09:46;;;;;;;0.00;0.00;;;9.80;99.90;;;;;;5196012;27;20767;-64
2024/04/20 09:12:13;;;;;;;0.00;0.00;;;10.00;99.90;;;;;;5197168;27;20027;-64
2024/04/20 09:14:59;;;;;;;0.00;0.00;;;10.30;99.90;;;;;;5191322;27;20008;-64
2024/04/20 09:17:25;;;;;;;0.00;0.00;;;10.50;99.90;;;;;;5189809;27;20462;-64
2024/04/20 09:20:12;;;;;;;0.00;0.00;;;10.70;99.90;;;;;;5193931;27;20004;-64
2024/04/20 09:23:10;;;;;;;0.00;0.00;;;10.90;99.90;;;;;;5182627;27;20011;-64
2024/04/20 09:25:55;;;;;;;0.00;0.00;;;11.20;99.90;;;;;;5192925;27;20339;-63
2024/04/20 09:28:43;;;;;;;0.00;0.00;;;11.30;99.90;;;;;;5186982;27;20009;-64
2024/04/20 09:31:32;;;;;;;0.00;0.00;;;11.40;99.90;;;;;;5195886;27;20018;-64
2024/04/20 09:34:27;;;;;;;0.00;0.00;;;11.40;99.90;;;;;;5195596;27;20459;-64
2024/04/20 09:37:12;;;;;;;0.00;0.00;;;10.90;99.90;;;;;;5190849;27;20004;-63
2024/04/20 09:39:58;;;;;;;0.00;0.00;;;10.50;99.90;;;;;;5188506;27;20661;-64
2024/04/20 09:42:46;;;;;;;0.00;0.00;;;10.10;99.90;;;;;;5187211;27;20690;-64
2024/04/20 09:45:37;;;;;;;0.00;0.00;;;9.80;99.90;;;;;;5195012;27;20039;-63
2024/04/20 09:48:26;;;;;;;;;;;9.50;99.90;;;;;;5179474;27;20007;-64
2024/04/20 09:51:22;;;;;;;0.00;0.00;;;9.50;99.90;;;;;;5187878;27;19935;-64
2024/04/20 09:54:15;;;;;;;0.00;0.00;;;9.40;1.00;;;;;;5192256;27;20023;-64
2024/04/20 09:57:07;;;;;;;0.08;0.00;;;9.40;1.00;;;;;;5195227;27;20011;-64
2024/04/20 09:59:56;;;;;;;0.00;0.00;;;9.60;1.00;;;;;;5146589;27;20036;-64
2024/04/20 10:02:44;;;;;;;0.00;0.00;;;9.70;1.00;;;;;;5191705;27;20494;-64
2024/04/20 10:05:31;;;;;;;0.00;0.00;;;9.80;1.00;;;;;;5198828;27;20008;-65
2024/04/20 10:08:19;;;;;;;0.00;0.00;;;9.80;1.00;;;;;;5195922;27;20043;-64
2024/04/20 10:11:06;;;;;;;0.00;0.00;;;9.90;1.00;;;;;;5196284;27;20019;-64
2024/04/20 10:13:54;;;;;;;0.00;0.00;;;10.00;99.90;;;;;;5198573;27;20008;-64
2024/04/20 10:16:40;;;;;;;0.00;0.00;;;10.20;99.90;;;;;;5169291;27;20019;-64
2024/04/20 10:19:57;;;;;;;0.00;0.00;;;10.30;99.90;;;;;;5194937;27;20051;-63
2024/04/20 10:22:42;;;;;;;0.00;0.00;;;10.40;99.90;;;;;;5190639;27;20008;-64
2024/04/20 10:25:39;;;;;;;0.00;0.00;;;10.20;99.90;;;;;;5184468;27;20677;-64
2024/04/20 10:28:31;;;;;;;0.00;0.00;;;10.20;99.90;;;;;;5147987;27;20593;-64
2024/04/20 10:31:26;;;;;;;0.00;0.00;;;10.30;99.90;;;;;;5192598;27;20522;-64
2024/04/20 10:34:24;;;;;;;0.57;0.00;;;10.60;99.90;;;;;;5188344;27;20008;-64
2024/04/20 10:37:24;;;;;;;0.10;0.00;;;10.90;99.90;;;;;;5180730;27;20012;-64
2024/04/20 10:40:14;;;;;;;0.00;0.00;;;11.00;99.90;;;;;;5176622;27;20114;-63
2024/04/20 10:43:10;;;;;;;;;;;11.00;99.90;;;;;;5196828;27;20008;-63
2024/04/20 10:46:04;;;;;;;0.00;0.00;;;11.00;99.90;;;;;;5161403;27;19980;-64
2024/04/20 10:48:55;;;;;;;0.00;0.00;;;11.00;99.90;;;;;;5190490;27;20024;-63
2024/04/20 10:51:55;;;;;;;0.00;0.00;;;10.90;99.90;;;;;;5215798;27;20022;-64
2024/04/20 10:54:42;;;;;;;0.00;0.00;;;10.90;99.90;;;;;;5175572;27;20017;-63
2024/04/20 10:57:30;;;;;;;0.00;0.00;;;10.60;99.90;;;;;;5180258;27;20510;-64
2024/04/20 11:00:21;;;;;;;0.00;0.00;;;10.30;99.90;;;;;;5189470;27;20078;-63
2024/04/20 11:02:54;;;;;;;0.00;0.00;;;10.40;99.90;;;;;;5190495;27;20444;-63
2024/04/20 11:05:21;;;;;;;0.00;0.00;;;10.50;99.90;;;;;;5199832;27;20019;-63
2024/04/20 11:08:00;;;;;;;0.00;0.00;;;10.70;1.00;;;;;;5184580;27;20334;-64
2024/04/20 11:10:58;;;;;;;0.00;0.00;;;11.00;1.00;;;;;;5183018;27;20007;-64
2024/04/20 11:13:44;;;;;;;0.00;0.00;;;10.80;99.90;;;;;;5198302;27;20541;-63
2024/04/20 11:16:31;;;;;;;0.00;0.00;;;10.60;99.90;;;;;;5187795;27;20134;-63
2024/04/20 11:19:20;;;;;;;0.00;0.00;;;10.80;99.90;;;;;;5188139;27;20015;-63
2024/04/20 11:22:09;;;;;;;0.00;0.00;;;10.80;99.90;;;;;;5198315;27;20007;-64
2024/04/20 11:24:55;;;;;;;0.00;0.00;;;10.90;99.90;;;;;;5196920;27;20403;-63
2024/04/20 11:27:43;;;;;;;0.00;0.00;;;11.00;99.90;;;;;;5193877;27;20013;-64
2024/04/20 11:30:37;;;;;;;0.00;0.00;;;11.20;99.90;;;;;;5181482;27;20067;-63
2024/04/20 11:33:23;;;;;;;0.00;0.00;;;11.00;99.90;;;;;;5186298;27;20018;-63
2024/04/20 11:36:13;;;;;;;0.00;0.00;;;10.80;99.90;;;;;;5195500;27;20013;-63
2024/04/20 11:39:11;;;;;;;0.00;0.00;;;10.60;99.90;;;;;;5197120;27;20007;-63
2024/04/20 11:42:04;;;;;;;0.00;0.00;;;10.50;99.90;;;;;;5209603;27;20015;-64
2024/04/20 11:44:51;;;;;;;0.22;0.00;;;10.30;99.90;;;;;;5201837;27;20015;-64
2024/04/20 11:47:39;;;;;;;0.00;0.00;;;10.20;1.00;;;;;;5182572;27;20004;-64
2024/04/20 11:50:31;;;;;;;0.20;0.00;;;10.00;1.00;;;;;;5134783;27;20059;-64
2024/04/20 11:56:02;;;;;;;0.00;0.00;;;9.70;75.40;;;;;;5183919;27;20557;-65
2024/04/20 11:58:28;;;;;;;0.00;0.00;;;9.60;99.90;;;;;;5196594;27;20021;-64
2024/04/20 12:00:56;;;;;;;0.00;0.00;;;9.70;99.90;;;;;;5195976;27;20004;-63
2024/04/20 12:03:22;;;;;;;0.00;0.00;;;9.60;53.30;;;;;;5192498;27;20467;-64
2024/04/20 12:05:48;;;;;;;0.00;0.00;;;9.60;99.90;;;;;;5194597;27;20023;-64
2024/04/20 12:08:14;;;;;;;0.00;0.00;;;9.70;99.90;;;;;;5197071;27;20012;-64
2024/04/20 12:10:40;;;;;;;0.00;0.00;;;9.80;33.30;;;;;;5198282;27;20014;-64
2024/04/20 12:13:07;;;;;;;0.00;0.00;;;9.90;7.30;;;;;;5199501;27;20376;-64
2024/04/20 12:15:33;;;;;;;0.00;0.00;;;10.20;99.90;;;;;;5193928;27;20043;-64
2024/04/20 12:17:59;;;;;;;0.00;0.00;;;10.30;99.90;;;;;;5196848;27;20012;-64
2024/04/20 12:20:25;;;;;;;0.00;0.00;;;10.40;1.00;;;;;;5198758;27;20003;-64
2024/04/20 12:22:51;;;;;;;0.00;0.00;;;10.60;17.80;;;;;;5186341;27;20035;-64
2024/04/20 12:25:18;;;;;;;0.65;0.00;;;10.70;1.00;;;;;;5196890;27;20026;-64
2024/04/20 12:27:46;;;;;;;0.00;0.00;;;10.60;99.90;;;;;;5196959;27;20007;-64
2024/04/20 12:30:12;;;;;;;0.00;0.00;;;10.40;99.90;;;;;;5195293;27;20043;-64
2024/04/20 12:32:39;;;;;;;0.00;0.00;;;10.40;99.90;;;;;;5200473;27;20012;-64
2024/04/20 12:35:05;;;;;;;0.00;0.00;;;10.50;1.00;;;;;;5211265;27;20458;-64
2024/04/20 12:37:31;;;;;;;0.00;0.00;;;10.50;1.00;;;;;;5205173;27;20054;-64
2024/04/20 12:39:57;;;;;;;0.00;0.00;;;10.50;1.00;;;;;;5210589;27;20665;-64
2024/04/20 12:42:23;;;;;;;0.00;0.00;;;10.40;99.90;;;;;;5206874;27;20351;-64
2024/04/20 12:45:00;;;;;;;0.00;0.00;;;10.30;99.90;;;;;;5204961;27;20018;-64
2024/04/20 12:47:26;;;;;;;0.00;0.00;;;10.10;99.90;;;;;;5194904;27;20447;-64
2024/04/20 12:49:58;;;;;;;0.00;0.00;;;10.30;1.00;;;;;;5207100;27;20011;-64
2024/04/20 12:52:24;;;;;;;0.00;0.00;;;10.60;99.90;;;;;;5186252;27;20510;-64
2024/04/20 12:54:51;;;;;;;0.00;0.00;;;10.90;1.00;;;;;;5194728;27;20019;-64
2024/04/20 12:57:16;;;;;;;0.00;0.00;;;11.10;99.90;;;;;;5214382;27;20003;-64
2024/04/20 12:59:42;;;;;;;0.00;0.00;;;11.00;99.90;;;;;;5196304;27;20069;-64
2024/04/20 13:02:08;;;;;;;0.00;0.00;;;10.80;99.90;;;;;;5198554;27;20011;-64
2024/04/20 13:04:34;;;;;;;0.00;0.00;;;10.80;99.90;;;;;;5190863;27;20030;-64
2024/04/20 13:07:00;;;;;;;0.00;0.00;;;10.90;1.00;;;;;;5201427;27;19999;-64
2024/04/20 13:09:26;;;;;;;0.00;0.00;;;11.00;1.00;;;;;;5195012;27;20024;-64
2024/04/20 13:11:51;;;;;;;0.00;0.00;;;11.10;1.00;;;;;;5192248;27;20447;-64
2024/04/20 13:14:18;;;;;;;0.00;0.00;;;11.10;1.00;;;;;;5222398;27;20544;-63
2024/04/20 13:16:44;;;;;;;0.00;0.00;;;11.10;99.90;;;;;;5200633;27;20461;-64
2024/04/20 13:19:09;;;;;;;0.00;0.00;;;11.10;99.90;;;;;;5202459;27;20019;-64
2024/04/20 13:21:36;;;;;;;0.20;0.10;;;11.00;99.90;;;;;;5197026;27;20393;-64
2024/04/20 13:24:01;;;;;;;0.00;0.00;;;10.90;99.90;;;;;;5198187;27;20011;-63
2024/04/20 13:26:27;;;;;;;0.00;0.00;;;10.70;99.90;;;;;;5212272;27;20050;-64
2024/04/20 13:28:53;;;;;;;0.00;0.00;;;10.70;99.90;;;;;;5209680;27;20003;-64
2024/04/20 13:31:19;;;;;;;0.00;0.00;;;10.70;1.00;;;;;;5195311;27;20003;-64
2024/04/20 13:33:45;;;;;;;0.00;0.00;;;10.80;99.90;;;;;;5207274;27;20778;-64
2024/04/20 13:36:11;;;;;;;0.00;0.00;;;10.80;99.90;;;;;;5195006;27;20004;-64
2024/04/20 13:38:37;;;;;;;0.00;0.00;;;10.90;99.90;;;;;;5180360;27;20094;-64
2024/04/20 13:41:07;;;;;;;0.00;0.00;;;11.10;99.90;;;;;;5172702;27;20343;-64
2024/04/20 13:43:33;;;;;;;0.00;0.00;;;11.10;99.90;;;;;;5178479;27;20004;-64
2024/04/20 13:46:11;;;;;;;0.00;0.00;;;11.10;99.90;;;;;;5207581;27;20000;-64
2024/04/20 13:48:41;;;;;;;0.00;0.00;;;11.10;99.90;;;;;;5209938;27;20035;-64
2024/04/20 13:51:07;;;;;;;0.00;0.00;;;11.10;99.90;;;;;;5198232;27;20056;-64
2024/04/20 13:53:34;;;;;;;0.00;0.00;;;11.00;99.90;;;;;;5201568;27;20073;-63
2024/04/20 13:56:03;;;;;;;0.00;0.00;;;11.00;99.90;;;;;;5190793;27;20444;-63